Portada
METAR-TAF:

METAR-TAF

Aeropuertos :

Aeropuerto de Palma de Mallorca

Palma de Mallorca, España

latitud: 39-33N, longitud: 002-44E, altitud: 4 m

Observación

El informe se hizo hace 23 minutos, a las 14:00 UTC
Viento 14 kt del suroeste, variando entre sur y oeste-suroeste
Temperatura 19°C
Humedad 56%
Presión 1012 hPa
Visibilidad 10 km o más
Escasas nubes a una altura de 3500 ft

METAR: LEPA 241400Z 22014KT 190V250 9999 FEW035 19/10 Q1012 NOSIG

Hora: 16:23 (14:23 UTC)

Pronóstico

El informe se hizo hace 3 horas y 23 minutos, a las 11:00 UTC
Pronóstico válido del 24 a las 12 UTC al 25 a las 12 UTC
Viento 15 kt del sur-suroeste
Visibilidad 10 km o más
Escasas nubes a una altura de 3000 ft

TAF: LEPA 241100Z 2412/2512 21015KT 9999 FEW030 TX18/2412Z TN12/2506Z

Observaciones y pronósticos meteorológicos de más de 4000 aeropuertos (mensajes METAR y TAF).

Los puntos amarillos y rojos representan las estaciones disponibles.

Ponga el ratón en el punto deseado para ver el nombre de la estación.

Haga clic para ver las observaciones y los pronósticos meteorológicos.

Para cambiar el mapa : haga clic en los botones verdes con una cruz de color negro para hacer un zoom, en el botón verde con un guión para alejar o en las flechas verdes para mapas adyacentes.


METAR-TAF: